Data for 11/12/2007

Time Sea-Level Adjusted Pressure Absolute Pressure Temperature Relative Humidity Dew Point   
(mb) (inHg) (mb) (inHg) (C) (F) (%) (C) (F)
00:05 1022 30.18 851 25.13 -2.8 26.9 82 -5.5 22
00:10 1022 30.18 851 25.13 -3 26.6 82 -5.6 21.8
00:15 1021 30.15 851 25.13 -3.2 26.2 82 -5.9 21.5
00:20 1021 30.15 851 25.13 -3.2 26.2 81 -6 21.2
00:25 1021 30.15 851 25.13 -3.2 26.2 81 -6 21.2
00:30 1021 30.15 851 25.13 -3.2 26.3 79 -6.2 20.8
00:35 1021 30.15 851 25.13 -2.9 26.8 78 -6.2 20.9
00:40 1021 30.15 851 25.13 -2.9 26.7 79 -6.1 21.1
00:45 1021 30.15 851 25.13 -3.1 26.5 79 -6.2 20.8
00:50 1022 30.18 851 25.13 -3.1 26.4 79 -6.2 20.8
00:55 1021 30.15 851 25.13 -3.2 26.3 79 -6.2 20.8
01:00 1021 30.15 851 25.13 -3.3 26 80 -6.2 20.8
01:05 1021 30.15 851 25.13 -3.3 26 80 -6.3 20.6
01:10 1021 30.15 851 25.13 -3.4 25.9 80 -6.3 20.7
01:15 1022 30.18 851 25.13 -3.6 25.6 81 -6.3 20.6
01:20 1022 30.18 851 25.13 -3.8 25.2 81 -6.5 20.2
01:25 1022 30.18 851 25.13 -3.8 25.1 80 -6.7 19.9
01:30 1022 30.18 851 25.13 -3.7 25.4 80 -6.6 20
01:35 1022 30.18 851 25.13 -3.7 25.3 80 -6.7 20
01:40 1022 30.18 851 25.13 -3.6 25.5 79 -6.7 19.9
01:45 1022 30.18 851 25.13 -3.6 25.4 79 -6.7 19.9
01:50 1022 30.18 851 25.13 -3.8 25.2 80 -6.7 19.9
01:55 1022 30.18 851 25.13 -3.9 25 80 -6.9 19.6
02:00 1022 30.18 851 25.13 -3.9 24.9 80 -6.8 19.7
02:05 1022 30.18 851 25.13 -4 24.8 81 -6.8 19.7
02:10 1022 30.18 851 25.13 -4.3 24.3 82 -6.9 19.6
02:15 1022 30.18 851 25.13 -4.6 23.8 83 -7.1 19.2
02:20 1022 30.18 851 25.13 -4.6 23.8 82 -7.1 19.2
02:25 1022 30.18 851 25.13 -4.6 23.8 82 -7.1 19.1
02:30 1022 30.18 851 25.13 -4.4 24.1 81 -7.2 19
02:35 1022 30.18 851 25.13 -3.9 24.9 78 -7.3 18.8
02:40 1022 30.18 851 25.13 -3.6 25.5 78 -6.9 19.5
02:45 1022 30.18 851 25.13 -3.7 25.3 78 -7.1 19.3
02:50 1022 30.18 851 25.13 -3.8 25.2 78 -7 19.4
02:55 1022 30.18 851 25.13 -3.8 25.1 78 -7.1 19.2
03:00 1022 30.18 851 25.13 -3.8 25.1 78 -7.2 19.1
03:05 1022 30.18 851 25.13 -4.2 24.5 81 -7 19.4
03:10 1022 30.18 851 25.13 -4.3 24.2 82 -7 19.4
03:15 1022 30.18 851 25.13 -4.5 23.9 83 -6.9 19.6
03:20 1022 30.18 851 25.13 -4.6 23.8 83 -7 19.4
03:25 1022 30.18 851 25.13 -4.4 24 83 -7 19.5
03:30 1022 30.18 851 25.13 -4.3 24.2 82 -7 19.5
03:35 1022 30.18 851 25.13 -4.4 24 80 -7.4 18.7
03:40 1021 30.15 851 25.13 -3.7 25.4 75 -7.4 18.7
03:45 1021 30.15 851 25.13 -3.6 25.6 76 -7.2 19.1
03:50 1021 30.15 851 25.13 -3.9 25 78 -7.2 19
03:55 1022 30.18 851 25.13 -4 24.8 80 -7 19.4
04:00 1022 30.18 851 25.13 -4.2 24.4 81 -7.1 19.3
04:05 1022 30.18 851 25.13 -4.4 24.1 81 -7.1 19.1
04:10 1021 30.15 851 25.13 -4.4 24 80 -7.4 18.7
04:15 1021 30.15 850 25.1 -4.2 24.5 79 -7.3 18.8
04:20 1021 30.15 850 25.1 -4.3 24.2 80 -7.3 18.9
04:25 1021 30.15 850 25.1 -4.4 24 79 -7.6 18.4
04:30 1021 30.15 850 25.1 -4.3 24.2 78 -7.6 18.3
04:35 1021 30.15 850 25.1 -4.4 24.1 79 -7.5 18.5
04:40 1021 30.15 850 25.1 -4.6 23.7 80 -7.6 18.3
04:45 1021 30.15 850 25.1 -4.6 23.8 79 -7.6 18.3
04:50 1021 30.15 850 25.1 -4.4 24.1 78 -7.7 18.1
04:55 1021 30.15 850 25.1 -4.4 24.1 80 -7.4 18.7
05:00 1021 30.15 850 25.1 -4.6 23.8 79 -7.7 18.2
05:05 1021 30.15 850 25.1 -4.3 24.3 76 -7.8 17.9
05:10 1021 30.15 850 25.1 -4.4 24.1 78 -7.7 18.1
05:15 1021 30.15 850 25.1 -4.7 23.5 79 -7.9 17.8
05:20 1021 30.15 850 25.1 -5.1 22.9 81 -7.9 17.8
05:25 1021 30.15 850 25.1 -5.1 22.9 81 -7.9 17.8
05:30 1021 30.15 850 25.1 -5.2 22.7 81 -8 17.7
05:35 1021 30.15 850 25.1 -5.2 22.6 81 -8 17.5
05:40 1021 30.15 850 25.1 -5.3 22.5 81 -8 17.5
05:45 1021 30.15 850 25.1 -5.1 22.7 79 -8.2 17.2
05:50 1021 30.15 850 25.1 -4.9 23.1 80 -7.9 17.8
05:55 1021 30.15 850 25.1 -4.8 23.3 80 -7.8 18
06:00 1021 30.15 850 25.1 -4.7 23.5 79 -7.8 18
06:05 1020 30.12 850 25.1 -4.5 23.8 79 -7.7 18.2
06:10 1020 30.12 850 25.1 -4.4 24.1 78 -7.7 18.1
06:15 1020 30.12 850 25.1 -4.3 24.3 77 -7.7 18.1
06:20 1020 30.12 850 25.1 -4.1 24.7 74 -7.9 17.7
06:25 1020 30.12 850 25.1 -3.7 25.4 72 -8 17.6
06:30 1020 30.12 850 25.1 -3.6 25.6 72 -7.9 17.8
06:35 1020 30.12 850 25.1 -3.6 25.6 71 -8.1 17.4
06:40 1020 30.12 849 25.07 -3.6 25.4 70 -8.3 17
06:45 1020 30.12 849 25.07 -3.5 25.7 69 -8.4 16.8
06:50 1020 30.12 849 25.07 -3.4 25.9 69 -8.2 17.2
06:55 1020 30.12 849 25.07 -3.9 25 74 -7.9 17.8
07:00 1020 30.12 850 25.1 -4.3 24.3 71 -8.8 16.2
07:05 1020 30.12 850 25.1 -3.9 24.9 68 -9 15.9
07:10 1020 30.12 850 25.1 -3.5 25.8 66 -8.9 16
07:15 1020 30.12 850 25.1 -3.4 25.9 67 -8.6 16.5
07:20 1020 30.12 850 25.1 -3.4 25.9 67 -8.6 16.6
07:25 1020 30.12 850 25.1 -3.3 26 66 -8.7 16.3
07:30 1020 30.12 850 25.1 -3.2 26.3 65 -8.8 16.2
07:35 1020 30.12 850 25.1 -3 26.7 66 -8.5 16.6
07:40 1020 30.12 850 25.1 -3 26.6 66 -8.4 16.9
07:45 1020 30.12 850 25.1 -2.8 26.9 66 -8.4 16.9
07:50 1020 30.12 850 25.1 -2.6 27.3 64 -8.4 16.9
07:55 1020 30.12 850 25.1 -2.4 27.7 64 -8.3 17.1
08:00 1020 30.12 849 25.07 -2.4 27.8 64 -8.2 17.2
08:05 1020 30.12 849 25.07 -2.3 27.8 64 -8.2 17.2
08:10 1020 30.12 849 25.07 -2.1 28.2 62 -8.4 16.9
08:15 1020 30.12 849 25.07 -1.9 28.7 61 -8.4 16.8
08:20 1020 30.12 849 25.07 -1.9 28.7 64 -7.7 18.1
08:25 1020 30.12 849 25.07 -1.9 28.6 65 -7.7 18.2
08:30 1020 30.12 849 25.07 -1.7 28.9 63 -7.9 17.8
08:35 1020 30.12 849 25.07 -1.4 29.5 63 -7.6 18.3
08:40 1020 30.12 849 25.07 -1.1 30 63 -7.3 18.8
08:45 1019 30.09 849 25.07 -1 30.1 62 -7.4 18.7
08:50 1019 30.09 849 25.07 -0.8 30.5 59 -7.9 17.9
08:55 1019 30.09 849 25.07 -0.5 31 57 -7.9 17.7
09:00 1019 30.09 849 25.07 -0.3 31.5 58 -7.6 18.3
09:05 1019 30.09 848 25.04 -0 31.9 56 -7.7 18.1
09:10 1019 30.09 848 25.04 0 32.1 59 -7.1 19.2
09:15 1019 30.09 848 25.04 0 32.1 58 -7.3 18.9
09:20 1019 30.09 848 25.04 0.3 32.5 57 -7.2 19
09:25 1019 30.09 848 25.04 0.6 33.2 55 -7.3 18.8
09:30 1019 30.09 848 25.04 0.9 33.6 54 -7.5 18.4
09:35 1019 30.09 848 25.04 1.2 34.1 54 -7.1 19.2
09:40 1019 30.09 848 25.04 1.3 34.3 55 -6.8 19.8
09:45 1019 30.09 848 25.04 1.5 34.7 52 -7.4 18.7
09:50 1019 30.09 848 25.04 1.8 35.2 52 -7.1 19.2
09:55 1019 30.09 848 25.04 1.9 35.4 51 -7.3 18.8
10:00 1019 30.09 848 25.04 2 35.7 51 -7 19.3
10:05 1019 30.09 848 25.04 2.2 36 50 -7.3 18.9
10:10 1019 30.09 848 25.04 2.2 36 50 -7.1 19.2
10:15 1019 30.09 848 25.04 2.2 35.9 51 -6.9 19.6
10:20 1019 30.09 848 25.04 2.1 35.8 50 -7.3 18.9
10:25 1018 30.06 848 25.04 2.1 35.8 52 -6.8 19.8
10:30 1018 30.06 848 25.04 2.2 35.9 51 -6.9 19.6
10:35 1018 30.06 847 25.01 2.3 36.2 54 -6.1 21.1
10:40 1018 30.06 847 25.01 2.6 36.7 51 -6.6 20.2
10:45 1018 30.06 847 25.01 2.9 37.2 52 -6 21.3
10:50 1018 30.06 847 25.01 3.1 37.6 51 -6 21.1
10:55 1018 30.06 847 25.01 3.1 37.7 53 -5.5 22.2
11:00 1018 30.06 847 25.01 3.2 37.8 48 -6.8 19.8
11:05 1018 30.06 847 25.01 3.4 38.2 49 -6.3 20.7
11:10 1018 30.06 847 25.01 3.6 38.6 49 -6.2 20.9
11:15 1017 30.03 847 25.01 3.9 39 49 -5.8 21.5
11:20 1017 30.03 846 24.98 4.2 39.5 48 -5.9 21.4
11:25 1017 30.03 846 24.98 4.1 39.4 52 -4.9 23.2
11:30 1017 30.03 846 24.98 3.8 38.9 52 -5 22.9
11:35 1017 30.03 846 24.98 3.8 38.9 55 -4.5 24
11:40 1017 30.03 846 24.98 4 39.1 56 -4.1 24.6
11:45 1016 30 846 24.98 4 39.2 57 -3.8 25.2
11:50 1017 30.03 846 24.98 3.9 38.9 57 -3.8 25.1
11:55 1017 30.03 846 24.98 4 39.2 57 -3.8 25.2
12:00 1016 30 845 24.95 4.7 40.5 54 -3.9 25
12:05 1016 30 845 24.95 4.9 40.8 51 -4.4 24.2
12:10 1016 30 845 24.95 5.3 41.5 48 -4.9 23.2
12:15 1016 30 845 24.95 5.7 42.2 47 -4.7 23.6
12:20 1016 30 845 24.95 5.9 42.7 48 -4.3 24.3
12:25 1016 30 845 24.95 6.1 43 46 -4.8 23.4
12:30 1016 30 845 24.95 6.2 43.2 46 -4.4 24.1
12:35 1015 29.97 845 24.95 6.4 43.5 47 -4.2 24.5
12:40 1016 30 845 24.95 6.3 43.4 46 -4.4 24
12:45 1015 29.97 845 24.95 6.4 43.5 46 -4.4 24.1
12:50 1015 29.97 844 24.92 6.1 43 47 -4.3 24.2
12:55 1015 29.97 844 24.92 6.3 43.4 47 -4.1 24.5
13:00 1015 29.97 844 24.92 6.5 43.8 48 -3.6 25.5
13:05 1015 29.97 844 24.92 6.4 43.6 50 -3.3 26.1
13:10 1015 29.97 844 24.92 6.6 43.8 51 -2.8 26.9
13:15 1015 29.97 844 24.92 6.6 43.9 51 -2.8 27
13:20 1014 29.94 844 24.92 6.5 43.6 52 -2.6 27.3
13:25 1014 29.94 843 24.89 6.4 43.5 54 -2.1 28.2
13:30 1014 29.94 843 24.89 6.5 43.7 53 -2.2 28
13:35 1014 29.94 843 24.89 6.6 43.8 51 -2.8 27
13:40 1014 29.94 843 24.89 6.6 43.8 50 -3.2 26.2
13:45 1014 29.94 843 24.89 6.7 44.1 50 -3 26.7
13:50 1014 29.94 843 24.89 6.7 44.1 48 -3.4 25.8
13:55 1013 29.91 843 24.89 7 44.5 44 -4.5 24
14:00 1013 29.91 843 24.89 7.1 44.8 47 -3.5 25.7
14:05 1013 29.91 843 24.89 7.2 44.9 39 -5.8 21.6
14:10 1013 29.91 842 24.86 7.4 45.4 41 -5.1 22.9
14:15 1013 29.91 842 24.86 7.5 45.5 35 -7.1 19.2
14:20 1013 29.91 842 24.86 7.8 46 46 -3.2 26.2
14:25 1013 29.91 842 24.86 7.6 45.6 33 -7.7 18.1
14:30 1013 29.91 842 24.86 8 46.4 39 -5.3 22.5
14:35 1013 29.91 842 24.86 7.8 46.1 40 -5.1 22.8
14:40 1013 29.91 842 24.86 7.6 45.7 34 -7.1 19.3
14:45 1013 29.91 842 24.86 8.1 46.7 33 -7.2 19
14:50 1013 29.91 842 24.86 8.8 47.8 31 -7.4 18.6
14:55 1013 29.91 842 24.86 9 48.2 23 -10.9 12.4
15:00 1013 29.91 842 24.86 9.8 49.6 23 -10.1 13.7
15:05 1013 29.91 842 24.86 10 50.1 24 -9.7 14.5
15:10 1013 29.91 842 24.86 10.1 50.2 21 -11 12.3
15:15 1013 29.91 842 24.86 10.1 50.1 22 -10.9 12.4
15:20 1013 29.91 842 24.86 9.9 49.7 23 -10.3 13.4
15:25 1013 29.91 842 24.86 9.7 49.4 24 -10.1 13.9
15:30 1013 29.91 842 24.86 9.5 49.1 21 -11.8 10.8
15:35 1013 29.91 842 24.86 9.7 49.4 22 -10.8 12.6
15:40 1013 29.91 842 24.86 9.7 49.5 20 -12.4 9.7
15:45 1013 29.91 842 24.86 9.7 49.5 21 -11.4 11.5
15:50 1013 29.91 842 24.86 9.6 49.3 19 -12.7 9.2
15:55 1013 29.91 842 24.86 9.7 49.4 19 -13.2 8.2
16:00 1013 29.91 842 24.86 9.8 49.7 19 -12.9 8.8
16:05 1013 29.91 842 24.86 9.9 49.8 21 -11.2 11.8
16:10 1013 29.91 842 24.86 9.7 49.5 21 -11.8 10.8
16:15 1013 29.91 842 24.86 9.6 49.3 20 -12.2 10.1
16:20 1013 29.91 842 24.86 9.8 49.7 20 -12.3 9.8
16:25 1013 29.91 842 24.86 10.2 50.4 17 -13.7 7.3
16:30 1013 29.91 842 24.86 10.4 50.6 16 -14.2 6.5
16:35 1013 29.91 842 24.86 10.3 50.5 17 -13.9 6.9
16:40 1013 29.91 842 24.86 10.2 50.4 19 -12.7 9.1
16:45 1012 29.88 842 24.86 10.3 50.5 16 -14.2 6.4
16:50 1013 29.91 842 24.86 10.4 50.8 16 -14.5 6
16:55 1012 29.88 842 24.86 10.5 50.8 16 -14 6.8
17:00 1013 29.91 842 24.86 10.3 50.6 18 -13.3 8.1
17:05 1012 29.88 842 24.86 10.2 50.3 17 -13.6 7.6
17:10 1012 29.88 842 24.86 10.1 50.3 17 -14.1 6.7
17:15 1012 29.88 842 24.86 10.3 50.5 17 -13.9 6.9
17:20 1012 29.88 842 24.86 10.1 50.3 19 -12.8 9
17:25 1012 29.88 842 24.86 10 50 18 -13.2 8.3
17:30 1013 29.91 842 24.86 9.9 49.8 18 -13.7 7.3
17:35 1012 29.88 842 24.86 9.9 49.9 18 -13.5 7.7
17:40 1013 29.91 842 24.86 10 49.9 18 -13.3 8
17:45 1013 29.91 842 24.86 10 49.9 19 -13 8.7
17:50 1012 29.88 842 24.86 9.9 49.8 18 -13.7 7.3
17:55 1012 29.88 842 24.86 10 49.9 17 -14 6.7
18:00 1013 29.91 842 24.86 10.4 50.7 15 -15.3 4.5
18:05 1013 29.91 842 24.86 10.7 51.2 17 -13.4 8
18:10 1012 29.88 842 24.86 10.2 50.4 13 -16.8 1.8
18:15 1012 29.88 842 24.86 11.1 51.9 14 -15.6 3.8
18:20 1013 29.91 842 24.86 11.4 52.5 15 -14.8 5.4
18:25 1012 29.88 842 24.86 11.2 52.2 15 -14.9 5.1
18:30 1012 29.88 841 24.83 11.2 52.1 14 -15.6 3.9
18:35 1012 29.88 841 24.83 11.1 52 13 -16 3.2
18:40 1012 29.88 842 24.86 11.4 52.5 14 -15.6 3.9
18:45 1013 29.91 842 24.86 11.7 53 14 -14.8 5.4
18:50 1012 29.88 842 24.86 12.1 53.7 14 -15.1 4.8
18:55 1012 29.88 842 24.86 12.5 54.5 15 -13.7 7.4
19:00 1013 29.91 842 24.86 12.2 54 17 -12.3 9.8
19:05 1013 29.91 842 24.86 12.1 53.9 17 -11.9 10.5
19:10 1013 29.91 842 24.86 12.3 54.2 18 -11.1 11.9
19:15 1013 29.91 842 24.86 12.3 54.2 17 -12.1 10.3
19:20 1013 29.91 842 24.86 12.4 54.3 18 -11.3 11.7
19:25 1013 29.91 842 24.86 12.3 54.2 18 -11.5 11.2
19:30 1013 29.91 842 24.86 12.1 53.7 17 -12.6 9.3
19:35 1012 29.88 842 24.86 12 53.6 17 -12 10.3
19:40 1012 29.88 842 24.86 11.9 53.5 18 -12 10.4
19:45 1012 29.88 841 24.83 11.7 53.1 19 -11.5 11.4
19:50 1012 29.88 841 24.83 11.6 52.8 19 -11.4 11.5
19:55 1012 29.88 841 24.83 11.5 52.7 20 -10.6 13
20:00 1012 29.88 841 24.83 11.5 52.7 21 -10 13.9
20:05 1012 29.88 841 24.83 11.4 52.5 23 -8.8 16.1
20:10 1012 29.88 841 24.83 11.7 53 23 -8.7 16.4
20:15 1011 29.85 841 24.83 11.5 52.7 26 -7.4 18.7
20:20 1011 29.85 840 24.81 11.6 52.8 24 -8.5 16.7
20:25 1011 29.85 840 24.81 11.5 52.7 24 -8.3 17.1
20:30 1011 29.85 840 24.81 11.8 53.2 24 -8.2 17.3
20:35 1011 29.85 840 24.81 12 53.7 25 -7.3 18.9
20:40 1010 29.83 840 24.81 11.8 53.2 26 -7.3 18.9
20:45 1010 29.83 840 24.81 11.9 53.4 27 -6.7 20
20:50 1010 29.83 839 24.78 12.1 53.8 26 -6.6 20.1
20:55 1010 29.83 839 24.78 11.9 53.4 27 -6.4 20.5
21:00 1010 29.83 839 24.78 11.7 53.1 26 -6.9 19.6
21:05 1010 29.83 839 24.78 11.6 52.8 27 -6.6 20
21:10 1010 29.83 839 24.78 11.6 52.8 28 -6.1 21.1
21:15 1010 29.83 839 24.78 11.3 52.4 29 -6 21.1
21:20 1010 29.83 839 24.78 11.5 52.7 28 -6.4 20.5
21:25 1010 29.83 839 24.78 11.8 53.3 28 -5.9 21.5
21:30 1010 29.83 839 24.78 11.9 53.5 28 -5.9 21.3
21:35 1010 29.83 839 24.78 12 53.6 30 -5.1 22.8
21:40 1010 29.83 839 24.78 11.7 53 30 -5.2 22.7
21:45 1010 29.83 839 24.78 11.9 53.4 29 -5.5 22.1
21:50 1010 29.83 839 24.78 12.1 53.7 30 -5.1 22.8
21:55 1010 29.83 839 24.78 12 53.5 31 -4.6 23.7
22:00 1010 29.83 839 24.78 12.1 53.7 29 -5.3 22.5
22:05 1010 29.83 839 24.78 12.2 54 30 -4.8 23.3
22:10 1009 29.8 838 24.75 11.9 53.4 33 -3.8 25.1
22:15 1009 29.8 838 24.75 11.8 53.2 33 -3.9 24.9
22:20 1009 29.8 838 24.75 11.8 53.2 34 -3.7 25.4
22:25 1008 29.77 838 24.75 11.7 53 33 -4 24.8
22:30 1008 29.77 837 24.72 11.8 53.3 32 -4.1 24.6
22:35 1008 29.77 837 24.72 12 53.7 34 -3.1 26.4
22:40 1008 29.77 837 24.72 12 53.6 33 -3.9 25
22:45 1007 29.74 837 24.72 12.4 54.3 32 -3.8 25.2
22:50 1007 29.74 836 24.69 12.4 54.3 32 -3.9 24.9
22:55 1007 29.74 836 24.69 12.4 54.3 32 -3.7 25.4
23:00 1007 29.74 836 24.69 12.2 54 33 -3.5 25.7
23:05 1007 29.74 836 24.69 12.2 54 32 -3.8 25.1
23:10 1006 29.71 836 24.69 12.5 54.4 32 -3.6 25.5
23:15 1006 29.71 835 24.66 12.6 54.6 32 -3.6 25.5
23:20 1006 29.71 835 24.66 12.8 55 32 -3.3 26.1
23:25 1006 29.71 835 24.66 12.6 54.7 32 -3.6 25.5
23:30 1006 29.71 835 24.66 12.6 54.6 33 -3.3 26.1
23:35 1006 29.71 835 24.66 12.8 55 32 -3.3 26.1
23:40 1006 29.71 835 24.66 12.8 55.1 32 -3.2 26.2
23:45 1006 29.71 835 24.66 12.7 54.8 32 -3.4 25.9
23:50 1006 29.71 835 24.66 12.8 55 33 -3.2 26.2
23:55 1005 29.68 835 24.66 12.8 55 32 -3.4 25.9
24:00 1005 29.68 834 24.63 12.8 55.1 33 -3.1 26.3